sensor_id;sensor_type;location;lat;lon;timestamp;temperature;humidity
46590;DHT22;32313;48.722;9.362;2023-10-08T00:01:21;8.70;99.90
46590;DHT22;32313;48.722;9.362;2023-10-08T00:03:47;8.70;99.90
46590;DHT22;32313;48.722;9.362;2023-10-08T00:06:18;8.80;99.90
46590;DHT22;32313;48.722;9.362;2023-10-08T00:08:45;8.90;99.90
46590;DHT22;32313;48.722;9.362;2023-10-08T00:11:11;8.90;99.90
46590;DHT22;32313;48.722;9.362;2023-10-08T00:13:37;9.00;99.90
46590;DHT22;32313;48.722;9.362;2023-10-08T00:16:10;9.00;99.90
46590;DHT22;32313;48.722;9.362;2023-10-08T00:18:38;9.00;99.90
46590;DHT22;32313;48.722;9.362;2023-10-08T00:21:07;9.10;99.90
46590;DHT22;32313;48.722;9.362;2023-10-08T00:23:35;9.10;99.90
46590;DHT22;32313;48.722;9.362;2023-10-08T00:26:02;9.10;99.90
46590;DHT22;32313;48.722;9.362;2023-10-08T00:28:30;9.20;99.90
46590;DHT22;32313;48.722;9.362;2023-10-08T00:30:58;9.20;99.90
46590;DHT22;32313;48.722;9.362;2023-10-08T00:33:31;9.20;99.90
46590;DHT22;32313;48.722;9.362;2023-10-08T00:35:57;9.30;99.90
46590;DHT22;32313;48.722;9.362;2023-10-08T00:38:22;9.30;99.90
46590;DHT22;32313;48.722;9.362;2023-10-08T00:40:51;9.30;99.90
46590;DHT22;32313;48.722;9.362;2023-10-08T00:43:34;9.40;99.90
46590;DHT22;32313;48.722;9.362;2023-10-08T00:46:02;9.40;99.90
46590;DHT22;32313;48.722;9.362;2023-10-08T00:48:42;9.50;99.90
46590;DHT22;32313;48.722;9.362;2023-10-08T00:51:10;9.40;99.90
46590;DHT22;32313;48.722;9.362;2023-10-08T00:53:42;9.50;99.90
46590;DHT22;32313;48.722;9.362;2023-10-08T00:56:09;9.50;99.90
46590;DHT22;32313;48.722;9.362;2023-10-08T00:58:41;9.50;99.90
46590;DHT22;32313;48.722;9.362;2023-10-08T01:01:11;9.60;99.90
46590;DHT22;32313;48.722;9.362;2023-10-08T01:03:37;9.60;99.90
46590;DHT22;32313;48.722;9.362;2023-10-08T01:06:11;9.60;99.90
46590;DHT22;32313;48.722;9.362;2023-10-08T01:08:37;9.60;99.90
46590;DHT22;32313;48.722;9.362;2023-10-08T01:11:23;9.70;99.90
46590;DHT22;32313;48.722;9.362;2023-10-08T01:14:11;9.60;99.90
46590;DHT22;32313;48.722;9.362;2023-10-08T01:16:37;9.70;99.90
46590;DHT22;32313;48.722;9.362;2023-10-08T01:19:04;9.60;99.90
46590;DHT22;32313;48.722;9.362;2023-10-08T01:21:37;9.60;99.90
46590;DHT22;32313;48.722;9.362;2023-10-08T01:24:05;9.60;99.90
46590;DHT22;32313;48.722;9.362;2023-10-08T01:26:35;9.50;99.90
46590;DHT22;32313;48.722;9.362;2023-10-08T01:29:08;9.50;99.90
46590;DHT22;32313;48.722;9.362;2023-10-08T01:31:35;9.40;99.90
46590;DHT22;32313;48.722;9.362;2023-10-08T01:34:02;9.40;99.90
46590;DHT22;32313;48.722;9.362;2023-10-08T01:36:30;9.40;99.90
46590;DHT22;32313;48.722;9.362;2023-10-08T01:38:57;9.30;99.90
46590;DHT22;32313;48.722;9.362;2023-10-08T01:41:23;9.30;99.90
46590;DHT22;32313;48.722;9.362;2023-10-08T01:43:56;9.20;99.90
46590;DHT22;32313;48.722;9.362;2023-10-08T01:46:24;9.20;99.90
46590;DHT22;32313;48.722;9.362;2023-10-08T01:48:52;9.20;99.90
46590;DHT22;32313;48.722;9.362;2023-10-08T01:51:29;9.20;99.90
46590;DHT22;32313;48.722;9.362;2023-10-08T01:54:05;9.20;99.90
46590;DHT22;32313;48.722;9.362;2023-10-08T01:56:38;9.20;99.90
46590;DHT22;32313;48.722;9.362;2023-10-08T01:59:10;9.20;99.90
46590;DHT22;32313;48.722;9.362;2023-10-08T02:01:37;9.20;99.90
46590;DHT22;32313;48.722;9.362;2023-10-08T02:04:05;9.20;99.90
46590;DHT22;32313;48.722;9.362;2023-10-08T02:06:33;9.20;99.90
46590;DHT22;32313;48.722;9.362;2023-10-08T02:09:00;9.10;99.90
46590;DHT22;32313;48.722;9.362;2023-10-08T02:11:47;9.10;99.90
46590;DHT22;32313;48.722;9.362;2023-10-08T02:14:17;9.10;99.90
46590;DHT22;32313;48.722;9.362;2023-10-08T02:16:51;9.00;99.90
46590;DHT22;32313;48.722;9.362;2023-10-08T02:19:24;8.90;99.90
46590;DHT22;32313;48.722;9.362;2023-10-08T02:21:57;8.80;99.90
46590;DHT22;32313;48.722;9.362;2023-10-08T02:24:23;8.80;99.90
46590;DHT22;32313;48.722;9.362;2023-10-08T02:26:51;8.70;99.90
46590;DHT22;32313;48.722;9.362;2023-10-08T02:29:17;8.60;99.90
46590;DHT22;32313;48.722;9.362;2023-10-08T02:31:43;8.50;99.90
46590;DHT22;32313;48.722;9.362;2023-10-08T02:34:09;8.50;99.90
46590;DHT22;32313;48.722;9.362;2023-10-08T02:36:36;8.40;99.90
46590;DHT22;32313;48.722;9.362;2023-10-08T02:39:06;8.40;99.90
46590;DHT22;32313;48.722;9.362;2023-10-08T02:41:45;8.30;99.90
46590;DHT22;32313;48.722;9.362;2023-10-08T02:44:12;8.30;99.90
46590;DHT22;32313;48.722;9.362;2023-10-08T02:46:43;8.20;99.90
46590;DHT22;32313;48.722;9.362;2023-10-08T02:49:13;8.20;99.90
46590;DHT22;32313;48.722;9.362;2023-10-08T02:51:45;8.10;99.90
46590;DHT22;32313;48.722;9.362;2023-10-08T02:54:11;8.10;99.90
46590;DHT22;32313;48.722;9.362;2023-10-08T02:56:51;8.10;99.90
46590;DHT22;32313;48.722;9.362;2023-10-08T02:59:18;8.00;99.90
46590;DHT22;32313;48.722;9.362;2023-10-08T03:01:48;8.00;99.90
46590;DHT22;32313;48.722;9.362;2023-10-08T03:04:22;7.90;99.90
46590;DHT22;32313;48.722;9.362;2023-10-08T03:06:49;7.90;99.90
46590;DHT22;32313;48.722;9.362;2023-10-08T03:09:20;7.80;99.90
46590;DHT22;32313;48.722;9.362;2023-10-08T03:11:50;7.80;99.90
46590;DHT22;32313;48.722;9.362;2023-10-08T03:14:17;7.70;99.90
46590;DHT22;32313;48.722;9.362;2023-10-08T03:16:50;7.70;99.90
46590;DHT22;32313;48.722;9.362;2023-10-08T03:19:17;7.70;99.90
46590;DHT22;32313;48.722;9.362;2023-10-08T03:21:47;7.70;99.90
46590;DHT22;32313;48.722;9.362;2023-10-08T03:24:23;7.70;99.90
46590;DHT22;32313;48.722;9.362;2023-10-08T03:27:01;7.80;99.90
46590;DHT22;32313;48.722;9.362;2023-10-08T03:29:40;7.80;99.90
46590;DHT22;32313;48.722;9.362;2023-10-08T03:32:10;7.70;99.90
46590;DHT22;32313;48.722;9.362;2023-10-08T03:34:40;7.70;99.90
46590;DHT22;32313;48.722;9.362;2023-10-08T03:37:09;7.70;99.90
46590;DHT22;32313;48.722;9.362;2023-10-08T03:39:35;7.70;99.90
46590;DHT22;32313;48.722;9.362;2023-10-08T03:42:23;7.60;99.90
46590;DHT22;32313;48.722;9.362;2023-10-08T03:44:49;7.70;99.90
46590;DHT22;32313;48.722;9.362;2023-10-08T03:47:19;7.60;99.90
46590;DHT22;32313;48.722;9.362;2023-10-08T03:49:48;7.60;99.90
46590;DHT22;32313;48.722;9.362;2023-10-08T03:52:17;7.60;99.90
46590;DHT22;32313;48.722;9.362;2023-10-08T03:54:47;7.60;99.90
46590;DHT22;32313;48.722;9.362;2023-10-08T03:57:30;7.70;99.90
46590;DHT22;32313;48.722;9.362;2023-10-08T04:00:08;7.70;99.90
46590;DHT22;32313;48.722;9.362;2023-10-08T04:02:39;7.70;99.90
46590;DHT22;32313;48.722;9.362;2023-10-08T04:05:06;7.70;99.90
46590;DHT22;32313;48.722;9.362;2023-10-08T04:07:43;7.60;99.90
46590;DHT22;32313;48.722;9.362;2023-10-08T04:10:42;7.60;99.90
46590;DHT22;32313;48.722;9.362;2023-10-08T04:13:08;7.60;99.90
46590;DHT22;32313;48.722;9.362;2023-10-08T04:15:35;7.50;99.90
46590;DHT22;32313;48.722;9.362;2023-10-08T04:18:10;7.50;99.90
46590;DHT22;32313;48.722;9.362;2023-10-08T04:20:36;7.50;99.90
46590;DHT22;32313;48.722;9.362;2023-10-08T04:23:20;7.50;99.90
46590;DHT22;32313;48.722;9.362;2023-10-08T04:25:48;7.50;99.90
46590;DHT22;32313;48.722;9.362;2023-10-08T04:28:20;7.50;99.90
46590;DHT22;32313;48.722;9.362;2023-10-08T04:30:47;7.50;99.90
46590;DHT22;32313;48.722;9.362;2023-10-08T04:33:13;7.50;99.90
46590;DHT22;32313;48.722;9.362;2023-10-08T04:35:44;7.50;99.90
46590;DHT22;32313;48.722;9.362;2023-10-08T04:38:22;7.60;99.90
46590;DHT22;32313;48.722;9.362;2023-10-08T04:40:49;7.60;99.90
46590;DHT22;32313;48.722;9.362;2023-10-08T04:43:27;7.60;99.90
46590;DHT22;32313;48.722;9.362;2023-10-08T04:45:59;7.70;99.90
46590;DHT22;32313;48.722;9.362;2023-10-08T04:48:29;7.70;99.90
46590;DHT22;32313;48.722;9.362;2023-10-08T04:50:59;7.80;99.90
46590;DHT22;32313;48.722;9.362;2023-10-08T04:53:26;7.80;99.90
46590;DHT22;32313;48.722;9.362;2023-10-08T04:55:58;7.80;99.90
46590;DHT22;32313;48.722;9.362;2023-10-08T04:58:28;7.80;99.90
46590;DHT22;32313;48.722;9.362;2023-10-08T05:01:00;7.80;99.90
46590;DHT22;32313;48.722;9.362;2023-10-08T05:03:46;7.80;99.90
46590;DHT22;32313;48.722;9.362;2023-10-08T05:06:26;7.80;99.90
46590;DHT22;32313;48.722;9.362;2023-10-08T05:09:11;7.80;99.90
46590;DHT22;32313;48.722;9.362;2023-10-08T05:11:47;7.80;99.90
46590;DHT22;32313;48.722;9.362;2023-10-08T05:14:23;7.80;99.90
46590;DHT22;32313;48.722;9.362;2023-10-08T05:16:56;7.80;99.90
46590;DHT22;32313;48.722;9.362;2023-10-08T05:19:41;7.70;99.90
46590;DHT22;32313;48.722;9.362;2023-10-08T05:22:15;7.60;99.90
46590;DHT22;32313;48.722;9.362;2023-10-08T05:24:45;7.50;99.90
46590;DHT22;32313;48.722;9.362;2023-10-08T05:27:36;7.50;99.90
46590;DHT22;32313;48.722;9.362;2023-10-08T05:32:59;7.60;99.90
46590;DHT22;32313;48.722;9.362;2023-10-08T05:35:45;7.60;99.90
46590;DHT22;32313;48.722;9.362;2023-10-08T05:38:12;7.60;99.90
46590;DHT22;32313;48.722;9.362;2023-10-08T05:40:58;7.60;99.90
46590;DHT22;32313;48.722;9.362;2023-10-08T05:46:15;7.60;99.90
46590;DHT22;32313;48.722;9.362;2023-10-08T05:49:04;7.60;99.90
46590;DHT22;32313;48.722;9.362;2023-10-08T05:51:34;7.50;99.90
46590;DHT22;32313;48.722;9.362;2023-10-08T05:54:13;7.60;99.90
46590;DHT22;32313;48.722;9.362;2023-10-08T05:57:07;7.60;99.90
46590;DHT22;32313;48.722;9.362;2023-10-08T06:05:06;7.80;99.90
46590;DHT22;32313;48.722;9.362;2023-10-08T06:07:45;7.80;99.90
46590;DHT22;32313;48.722;9.362;2023-10-08T06:10:17;7.90;99.90
46590;DHT22;32313;48.722;9.362;2023-10-08T06:12:57;7.90;99.90
46590;DHT22;32313;48.722;9.362;2023-10-08T06:15:28;8.00;99.90
46590;DHT22;32313;48.722;9.362;2023-10-08T06:18:10;8.00;99.90
46590;DHT22;32313;48.722;9.362;2023-10-08T06:20:36;8.10;99.90
46590;DHT22;32313;48.722;9.362;2023-10-08T06:23:05;8.20;99.90
46590;DHT22;32313;48.722;9.362;2023-10-08T06:25:33;8.20;99.90
46590;DHT22;32313;48.722;9.362;2023-10-08T06:28:13;8.40;99.90
46590;DHT22;32313;48.722;9.362;2023-10-08T06:30:41;8.60;99.90
46590;DHT22;32313;48.722;9.362;2023-10-08T06:33:08;8.70;99.90
46590;DHT22;32313;48.722;9.362;2023-10-08T06:35:34;8.90;99.90
46590;DHT22;32313;48.722;9.362;2023-10-08T06:38:01;9.00;99.90
46590;DHT22;32313;48.722;9.362;2023-10-08T06:40:34;9.10;99.90
46590;DHT22;32313;48.722;9.362;2023-10-08T06:43:03;9.20;99.90
46590;DHT22;32313;48.722;9.362;2023-10-08T06:45:44;9.30;99.90
46590;DHT22;32313;48.722;9.362;2023-10-08T06:48:13;9.40;99.90
46590;DHT22;32313;48.722;9.362;2023-10-08T06:50:48;9.50;99.90
46590;DHT22;32313;48.722;9.362;2023-10-08T06:53:14;9.50;99.90
46590;DHT22;32313;48.722;9.362;2023-10-08T06:55:41;9.60;99.90
46590;DHT22;32313;48.722;9.362;2023-10-08T06:58:07;9.70;99.90
46590;DHT22;32313;48.722;9.362;2023-10-08T07:00:40;9.70;99.90
46590;DHT22;32313;48.722;9.362;2023-10-08T07:03:16;9.70;99.90
46590;DHT22;32313;48.722;9.362;2023-10-08T07:05:50;9.70;99.90
46590;DHT22;32313;48.722;9.362;2023-10-08T07:08:30;9.70;99.90
46590;DHT22;32313;48.722;9.362;2023-10-08T07:11:03;9.70;99.90
46590;DHT22;32313;48.722;9.362;2023-10-08T07:13:34;9.70;99.90
46590;DHT22;32313;48.722;9.362;2023-10-08T07:16:01;9.80;99.90
46590;DHT22;32313;48.722;9.362;2023-10-08T07:18:30;9.90;99.90
46590;DHT22;32313;48.722;9.362;2023-10-08T07:20:59;10.70;99.90
46590;DHT22;32313;48.722;9.362;2023-10-08T07:23:38;11.60;99.90
46590;DHT22;32313;48.722;9.362;2023-10-08T07:26:22;12.30;99.90
46590;DHT22;32313;48.722;9.362;2023-10-08T07:28:50;12.90;99.90
46590;DHT22;32313;48.722;9.362;2023-10-08T07:31:22;13.20;99.90
46590;DHT22;32313;48.722;9.362;2023-10-08T07:33:50;13.20;99.90
46590;DHT22;32313;48.722;9.362;2023-10-08T07:36:26;13.20;99.90
46590;DHT22;32313;48.722;9.362;2023-10-08T07:38:53;13.10;99.90
46590;DHT22;32313;48.722;9.362;2023-10-08T07:41:19;13.00;99.90
46590;DHT22;32313;48.722;9.362;2023-10-08T07:43:49;12.90;99.90
46590;DHT22;32313;48.722;9.362;2023-10-08T07:46:22;12.90;99.90
46590;DHT22;32313;48.722;9.362;2023-10-08T07:48:48;12.90;99.90
46590;DHT22;32313;48.722;9.362;2023-10-08T07:51:16;12.90;99.90
46590;DHT22;32313;48.722;9.362;2023-10-08T07:53:43;12.90;99.90
46590;DHT22;32313;48.722;9.362;2023-10-08T07:56:08;13.00;99.90
46590;DHT22;32313;48.722;9.362;2023-10-08T07:58:35;13.10;99.90
46590;DHT22;32313;48.722;9.362;2023-10-08T08:01:08;13.20;99.90
46590;DHT22;32313;48.722;9.362;2023-10-08T08:03:36;13.20;99.90
46590;DHT22;32313;48.722;9.362;2023-10-08T08:06:06;13.40;99.90
46590;DHT22;32313;48.722;9.362;2023-10-08T08:08:33;13.60;99.90
46590;DHT22;32313;48.722;9.362;2023-10-08T08:11:00;13.80;99.90
46590;DHT22;32313;48.722;9.362;2023-10-08T08:13:32;14.00;99.90
46590;DHT22;32313;48.722;9.362;2023-10-08T08:15:59;14.20;99.90
46590;DHT22;32313;48.722;9.362;2023-10-08T08:18:37;14.50;99.90
46590;DHT22;32313;48.722;9.362;2023-10-08T08:21:03;14.90;99.90
46590;DHT22;32313;48.722;9.362;2023-10-08T08:23:36;15.20;99.90
46590;DHT22;32313;48.722;9.362;2023-10-08T08:26:02;15.20;99.90
46590;DHT22;32313;48.722;9.362;2023-10-08T08:28:38;15.20;99.90
46590;DHT22;32313;48.722;9.362;2023-10-08T08:31:05;15.80;99.90
46590;DHT22;32313;48.722;9.362;2023-10-08T08:33:42;17.10;99.90
46590;DHT22;32313;48.722;9.362;2023-10-08T08:36:27;18.00;99.90
46590;DHT22;32313;48.722;9.362;2023-10-08T08:38:53;18.60;99.90
46590;DHT22;32313;48.722;9.362;2023-10-08T08:41:20;19.10;99.90
46590;DHT22;32313;48.722;9.362;2023-10-08T08:43:53;19.10;99.90
46590;DHT22;32313;48.722;9.362;2023-10-08T08:46:48;18.80;99.90
46590;DHT22;32313;48.722;9.362;2023-10-08T08:49:14;18.30;99.90
46590;DHT22;32313;48.722;9.362;2023-10-08T08:51:41;18.10;99.90
46590;DHT22;32313;48.722;9.362;2023-10-08T08:54:08;18.30;99.90
46590;DHT22;32313;48.722;9.362;2023-10-08T08:56:38;18.10;99.90
46590;DHT22;32313;48.722;9.362;2023-10-08T08:59:04;18.90;99.90
46590;DHT22;32313;48.722;9.362;2023-10-08T09:01:30;20.10;99.90
46590;DHT22;32313;48.722;9.362;2023-10-08T09:04:04;21.20;99.90
46590;DHT22;32313;48.722;9.362;2023-10-08T09:06:36;22.10;99.90
46590;DHT22;32313;48.722;9.362;2023-10-08T09:09:07;22.90;99.90
46590;DHT22;32313;48.722;9.362;2023-10-08T09:11:52;23.20;99.90
46590;DHT22;32313;48.722;9.362;2023-10-08T09:14:25;23.90;99.90
46590;DHT22;32313;48.722;9.362;2023-10-08T09:16:54;24.40;99.90
46590;DHT22;32313;48.722;9.362;2023-10-08T09:19:20;24.50;99.90
46590;DHT22;32313;48.722;9.362;2023-10-08T09:22:08;24.50;99.90
46590;DHT22;32313;48.722;9.362;2023-10-08T09:24:36;24.80;99.90
46590;DHT22;32313;48.722;9.362;2023-10-08T09:27:06;25.50;99.90
46590;DHT22;32313;48.722;9.362;2023-10-08T09:29:33;25.80;99.90
46590;DHT22;32313;48.722;9.362;2023-10-08T09:32:04;26.40;97.30
46590;DHT22;32313;48.722;9.362;2023-10-08T09:34:31;26.60;93.80
46590;DHT22;32313;48.722;9.362;2023-10-08T09:36:59;26.90;91.50
46590;DHT22;32313;48.722;9.362;2023-10-08T09:39:26;26.70;91.00
46590;DHT22;32313;48.722;9.362;2023-10-08T09:41:55;26.00;88.80
46590;DHT22;32313;48.722;9.362;2023-10-08T09:44:22;25.70;90.80
46590;DHT22;32313;48.722;9.362;2023-10-08T09:47:09;25.40;90.00
46590;DHT22;32313;48.722;9.362;2023-10-08T09:50:06;25.30;89.50
46590;DHT22;32313;48.722;9.362;2023-10-08T09:52:49;25.90;89.90
46590;DHT22;32313;48.722;9.362;2023-10-08T09:55:18;25.90;85.50
46590;DHT22;32313;48.722;9.362;2023-10-08T09:57:44;25.30;88.30
46590;DHT22;32313;48.722;9.362;2023-10-08T10:00:10;24.80;86.90
46590;DHT22;32313;48.722;9.362;2023-10-08T10:02:44;24.20;84.50
46590;DHT22;32313;48.722;9.362;2023-10-08T10:05:20;23.60;88.10
46590;DHT22;32313;48.722;9.362;2023-10-08T10:07:50;23.30;89.40
46590;DHT22;32313;48.722;9.362;2023-10-08T10:10:29;23.20;90.80
46590;DHT22;32313;48.722;9.362;2023-10-08T10:13:05;23.10;90.20
46590;DHT22;32313;48.722;9.362;2023-10-08T10:15:34;23.10;90.50
46590;DHT22;32313;48.722;9.362;2023-10-08T10:20:53;23.40;91.10
46590;DHT22;32313;48.722;9.362;2023-10-08T10:23:36;23.70;91.40
46590;DHT22;32313;48.722;9.362;2023-10-08T10:26:03;23.80;90.00
46590;DHT22;32313;48.722;9.362;2023-10-08T10:28:29;23.90;90.20
46590;DHT22;32313;48.722;9.362;2023-10-08T10:30:55;23.80;90.10
46590;DHT22;32313;48.722;9.362;2023-10-08T10:33:34;23.70;90.10
46590;DHT22;32313;48.722;9.362;2023-10-08T10:36:03;23.80;89.00
46590;DHT22;32313;48.722;9.362;2023-10-08T10:38:31;23.90;89.40
46590;DHT22;32313;48.722;9.362;2023-10-08T10:40:59;23.80;90.50
46590;DHT22;32313;48.722;9.362;2023-10-08T10:43:25;23.60;89.80
46590;DHT22;32313;48.722;9.362;2023-10-08T10:46:00;23.30;89.70
46590;DHT22;32313;48.722;9.362;2023-10-08T10:48:46;23.20;90.60
46590;DHT22;32313;48.722;9.362;2023-10-08T10:51:30;23.10;90.10
46590;DHT22;32313;48.722;9.362;2023-10-08T10:53:57;22.90;88.70
46590;DHT22;32313;48.722;9.362;2023-10-08T10:56:24;22.90;90.80
46590;DHT22;32313;48.722;9.362;2023-10-08T10:59:00;22.70;91.00
46590;DHT22;32313;48.722;9.362;2023-10-08T11:01:31;22.60;91.30
46590;DHT22;32313;48.722;9.362;2023-10-08T11:04:10;22.60;91.50
46590;DHT22;32313;48.722;9.362;2023-10-08T11:06:43;22.50;91.00
46590;DHT22;32313;48.722;9.362;2023-10-08T11:09:10;22.40;91.80
46590;DHT22;32313;48.722;9.362;2023-10-08T11:11:46;22.40;93.00
46590;DHT22;32313;48.722;9.362;2023-10-08T11:14:20;22.50;93.10
46590;DHT22;32313;48.722;9.362;2023-10-08T11:16:50;22.60;92.50
46590;DHT22;32313;48.722;9.362;2023-10-08T11:19:19;22.80;92.30
46590;DHT22;32313;48.722;9.362;2023-10-08T11:21:49;22.90;92.30
46590;DHT22;32313;48.722;9.362;2023-10-08T11:24:27;23.00;93.10
46590;DHT22;32313;48.722;9.362;2023-10-08T11:26:53;23.10;92.80
46590;DHT22;32313;48.722;9.362;2023-10-08T11:29:37;23.00;92.90
46590;DHT22;32313;48.722;9.362;2023-10-08T11:32:04;23.00;93.00
46590;DHT22;32313;48.722;9.362;2023-10-08T11:34:32;23.10;93.20
46590;DHT22;32313;48.722;9.362;2023-10-08T11:37:05;23.20;93.10
46590;DHT22;32313;48.722;9.362;2023-10-08T11:39:39;23.60;92.80
46590;DHT22;32313;48.722;9.362;2023-10-08T11:42:11;24.00;92.20
46590;DHT22;32313;48.722;9.362;2023-10-08T11:44:58;24.10;90.10
46590;DHT22;32313;48.722;9.362;2023-10-08T11:47:27;24.20;89.30
46590;DHT22;32313;48.722;9.362;2023-10-08T11:50:01;24.40;88.10
46590;DHT22;32313;48.722;9.362;2023-10-08T11:52:37;24.80;86.90
46590;DHT22;32313;48.722;9.362;2023-10-08T11:55:08;25.40;86.10
46590;DHT22;32313;48.722;9.362;2023-10-08T11:57:34;26.30;83.60
46590;DHT22;32313;48.722;9.362;2023-10-08T12:00:12;27.60;80.70
46590;DHT22;32313;48.722;9.362;2023-10-08T12:02:51;28.40;77.60
46590;DHT22;32313;48.722;9.362;2023-10-08T12:05:20;29.00;74.70
46590;DHT22;32313;48.722;9.362;2023-10-08T12:07:50;29.10;73.90
46590;DHT22;32313;48.722;9.362;2023-10-08T12:10:17;29.50;69.50
46590;DHT22;32313;48.722;9.362;2023-10-08T12:12:54;29.80;69.50
46590;DHT22;32313;48.722;9.362;2023-10-08T12:15:25;30.20;69.20
46590;DHT22;32313;48.722;9.362;2023-10-08T12:18:11;29.80;68.40
46590;DHT22;32313;48.722;9.362;2023-10-08T12:20:41;29.10;70.90
46590;DHT22;32313;48.722;9.362;2023-10-08T12:23:10;28.90;72.40
46590;DHT22;32313;48.722;9.362;2023-10-08T12:25:48;29.10;72.40
46590;DHT22;32313;48.722;9.362;2023-10-08T12:28:17;29.20;72.00
46590;DHT22;32313;48.722;9.362;2023-10-08T12:30:45;29.00;70.70
46590;DHT22;32313;48.722;9.362;2023-10-08T12:33:11;28.90;71.50
46590;DHT22;32313;48.722;9.362;2023-10-08T12:35:42;28.70;70.80
46590;DHT22;32313;48.722;9.362;2023-10-08T12:38:08;28.30;70.50
46590;DHT22;32313;48.722;9.362;2023-10-08T12:40:36;28.20;70.00
46590;DHT22;32313;48.722;9.362;2023-10-08T12:43:16;28.60;70.40
46590;DHT22;32313;48.722;9.362;2023-10-08T12:45:48;29.50;70.50
46590;DHT22;32313;48.722;9.362;2023-10-08T12:48:26;30.20;67.00
46590;DHT22;32313;48.722;9.362;2023-10-08T12:50:53;30.80;63.10
46590;DHT22;32313;48.722;9.362;2023-10-08T12:53:28;31.60;64.10
46590;DHT22;32313;48.722;9.362;2023-10-08T12:56:11;31.80;60.20
46590;DHT22;32313;48.722;9.362;2023-10-08T12:58:46;31.60;58.40
46590;DHT22;32313;48.722;9.362;2023-10-08T13:01:19;31.20;61.20
46590;DHT22;32313;48.722;9.362;2023-10-08T13:03:48;31.60;61.00
46590;DHT22;32313;48.722;9.362;2023-10-08T13:06:18;31.90;60.60
46590;DHT22;32313;48.722;9.362;2023-10-08T13:08:57;32.10;60.10
46590;DHT22;32313;48.722;9.362;2023-10-08T13:11:27;32.20;58.20
46590;DHT22;32313;48.722;9.362;2023-10-08T13:13:57;32.30;58.50
46590;DHT22;32313;48.722;9.362;2023-10-08T13:16:27;32.80;57.70
46590;DHT22;32313;48.722;9.362;2023-10-08T13:19:03;33.10;56.80
46590;DHT22;32313;48.722;9.362;2023-10-08T13:21:29;32.70;56.40
46590;DHT22;32313;48.722;9.362;2023-10-08T13:23:57;32.80;56.40
46590;DHT22;32313;48.722;9.362;2023-10-08T13:26:25;32.60;56.90
46590;DHT22;32313;48.722;9.362;2023-10-08T13:28:56;32.30;57.30
46590;DHT22;32313;48.722;9.362;2023-10-08T13:31:23;32.30;58.30
46590;DHT22;32313;48.722;9.362;2023-10-08T13:33:50;32.60;57.10
46590;DHT22;32313;48.722;9.362;2023-10-08T13:36:24;32.60;55.30
46590;DHT22;32313;48.722;9.362;2023-10-08T13:38:50;32.50;56.10
46590;DHT22;32313;48.722;9.362;2023-10-08T13:41:17;32.60;55.20
46590;DHT22;32313;48.722;9.362;2023-10-08T13:43:45;32.80;55.10
46590;DHT22;32313;48.722;9.362;2023-10-08T13:46:12;32.70;55.10
46590;DHT22;32313;48.722;9.362;2023-10-08T13:48:44;32.70;54.70
46590;DHT22;32313;48.722;9.362;2023-10-08T13:51:21;32.80;53.60
46590;DHT22;32313;48.722;9.362;2023-10-08T13:53:57;32.90;53.60
46590;DHT22;32313;48.722;9.362;2023-10-08T13:56:27;33.00;53.70
46590;DHT22;32313;48.722;9.362;2023-10-08T13:58:56;32.80;53.50
46590;DHT22;32313;48.722;9.362;2023-10-08T14:01:33;32.50;54.10
46590;DHT22;32313;48.722;9.362;2023-10-08T14:04:00;32.30;54.10
46590;DHT22;32313;48.722;9.362;2023-10-08T14:06:36;32.40;54.30
46590;DHT22;32313;48.722;9.362;2023-10-08T14:09:03;32.70;53.70
46590;DHT22;32313;48.722;9.362;2023-10-08T14:11:38;33.00;53.50
46590;DHT22;32313;48.722;9.362;2023-10-08T14:14:04;33.10;52.40
46590;DHT22;32313;48.722;9.362;2023-10-08T14:16:37;32.90;52.60
46590;DHT22;32313;48.722;9.362;2023-10-08T14:19:03;32.50;53.40
46590;DHT22;32313;48.722;9.362;2023-10-08T14:21:31;32.20;54.50
46590;DHT22;32313;48.722;9.362;2023-10-08T14:24:02;31.90;53.70
46590;DHT22;32313;48.722;9.362;2023-10-08T14:26:31;31.60;54.80
46590;DHT22;32313;48.722;9.362;2023-10-08T14:29:03;31.50;54.40
46590;DHT22;32313;48.722;9.362;2023-10-08T14:31:43;31.20;54.60
46590;DHT22;32313;48.722;9.362;2023-10-08T14:34:16;30.60;55.40
46590;DHT22;32313;48.722;9.362;2023-10-08T14:36:47;29.80;57.90
46590;DHT22;32313;48.722;9.362;2023-10-08T14:39:35;29.00;59.10
46590;DHT22;32313;48.722;9.362;2023-10-08T14:42:19;28.40;60.60
46590;DHT22;32313;48.722;9.362;2023-10-08T14:45:04;27.70;63.40
46590;DHT22;32313;48.722;9.362;2023-10-08T14:47:39;27.30;65.40
46590;DHT22;32313;48.722;9.362;2023-10-08T14:50:06;26.90;67.40
46590;DHT22;32313;48.722;9.362;2023-10-08T14:52:44;26.70;68.20
46590;DHT22;32313;48.722;9.362;2023-10-08T14:55:10;26.30;69.80
46590;DHT22;32313;48.722;9.362;2023-10-08T14:57:39;26.10;70.30
46590;DHT22;32313;48.722;9.362;2023-10-08T15:00:06;25.80;70.40
46590;DHT22;32313;48.722;9.362;2023-10-08T15:02:32;25.70;70.60
46590;DHT22;32313;48.722;9.362;2023-10-08T15:04:58;25.90;70.10
46590;DHT22;32313;48.722;9.362;2023-10-08T15:07:27;26.10;69.60
46590;DHT22;32313;48.722;9.362;2023-10-08T15:09:53;26.20;68.90
46590;DHT22;32313;48.722;9.362;2023-10-08T15:12:23;26.50;69.50
46590;DHT22;32313;48.722;9.362;2023-10-08T15:14:51;26.40;69.20
46590;DHT22;32313;48.722;9.362;2023-10-08T15:17:17;26.30;69.30
46590;DHT22;32313;48.722;9.362;2023-10-08T15:19:43;25.90;70.70
46590;DHT22;32313;48.722;9.362;2023-10-08T15:22:09;25.60;71.80
46590;DHT22;32313;48.722;9.362;2023-10-08T15:24:34;25.40;72.20
46590;DHT22;32313;48.722;9.362;2023-10-08T15:27:02;25.30;72.70
46590;DHT22;32313;48.722;9.362;2023-10-08T15:29:29;25.20;73.20
46590;DHT22;32313;48.722;9.362;2023-10-08T15:31:56;25.00;74.80
46590;DHT22;32313;48.722;9.362;2023-10-08T15:34:23;24.80;75.20
46590;DHT22;32313;48.722;9.362;2023-10-08T15:36:55;24.70;75.60
46590;DHT22;32313;48.722;9.362;2023-10-08T15:39:22;24.60;76.70
46590;DHT22;32313;48.722;9.362;2023-10-08T15:41:52;24.40;77.00
46590;DHT22;32313;48.722;9.362;2023-10-08T15:44:18;24.10;78.50
46590;DHT22;32313;48.722;9.362;2023-10-08T15:46:50;23.90;79.40
46590;DHT22;32313;48.722;9.362;2023-10-08T15:49:17;23.70;80.30
46590;DHT22;32313;48.722;9.362;2023-10-08T15:51:46;23.50;81.20
46590;DHT22;32313;48.722;9.362;2023-10-08T15:54:12;23.20;81.50
46590;DHT22;32313;48.722;9.362;2023-10-08T15:56:38;23.00;82.00
46590;DHT22;32313;48.722;9.362;2023-10-08T15:59:04;22.80;82.70
46590;DHT22;32313;48.722;9.362;2023-10-08T16:01:29;22.60;84.10
46590;DHT22;32313;48.722;9.362;2023-10-08T16:03:55;22.50;83.80
46590;DHT22;32313;48.722;9.362;2023-10-08T16:06:21;22.40;84.90
46590;DHT22;32313;48.722;9.362;2023-10-08T16:09:05;22.20;86.20
46590;DHT22;32313;48.722;9.362;2023-10-08T16:11:31;22.10;88.90
46590;DHT22;32313;48.722;9.362;2023-10-08T16:13:57;21.90;88.50
46590;DHT22;32313;48.722;9.362;2023-10-08T16:16:23;21.90;88.80
46590;DHT22;32313;48.722;9.362;2023-10-08T16:18:48;21.70;89.60